Fernald, Iowa
Current Conditions -  °F | °C
As of 5:53 PM on Wednesday 26 Nov 2014 (Local Time) from KAMW Reporting Station
Light Snow Light Snow  
Wind Chill: 14°   Ceiling: 1800
Heat Index: 27°   Visibility: 1.5mi
Dew Point: 23°   Wind: 17mph
Humidity: 85%   Direction: 360°N
Pressure: 30.21"   Gusts: NA
Location:  42.0225°N, 93.4344°W
Report Text: KAMW 262353Z AUTO 36015KT 1 1/2SM -SN BR SCT009 OVC018 M03/M05 A3021 RMK AO2 SLP240 P0000 60002 T10281050 11011 21028 51027
Loading
Personal Weather Stations






























Interactive Weather Map New forecast layout! Learn more

10-Day Weather Forecast

Advertisements
Track Severe Weather on mobile